Time;durP1;ratioP1;P1;durP2;ratioP2;P2;SDS_P1;SDS_P2;PMS_P1;PMS_P2;Temp;Humidity;BMP_temperature;BMP_pressure;BME280_temperature;BME280_humidity;BME280_pressure;Samples;Min_cycle;Max_cycle;Signal;HPM_P1;HPM_P2
2023/02/25 00:02:00;;;;;;;20.17;3.70;;;7.10;99.90;;;;;;5055999;28;20520;-75
2023/02/25 00:04:28;;;;;;;9.97;3.20;;;7.00;99.90;;;;;;5054372;28;20516;-75
2023/02/25 00:06:54;;;;;;;8.63;2.40;;;7.00;99.90;;;;;;5052320;28;20193;-75
2023/02/25 00:09:20;;;;;;;13.70;3.17;;;7.00;99.90;;;;;;5064745;28;20425;-75
2023/02/25 00:11:45;;;;;;;6.03;2.30;;;7.10;99.90;;;;;;5068585;28;20221;-74
2023/02/25 00:14:11;;;;;;;10.63;3.03;;;7.10;99.90;;;;;;5061835;28;20182;-74
2023/02/25 00:16:36;;;;;;;18.93;3.40;;;7.10;99.90;;;;;;5057228;28;20182;-74
2023/02/25 00:19:02;;;;;;;16.17;3.43;;;7.00;99.90;;;;;;5059158;28;20640;-74
2023/02/25 00:21:28;;;;;;;12.00;3.60;;;7.00;99.90;;;;;;5060869;28;20273;-74
2023/02/25 00:23:54;;;;;;;10.70;2.50;;;7.00;99.90;;;;;;5062784;28;20566;-75
2023/02/25 00:26:21;;;;;;;10.20;3.47;;;7.00;99.90;;;;;;5064467;28;20540;-75
2023/02/25 00:28:47;;;;;;;12.77;2.57;;;7.00;99.90;;;;;;5066020;28;20490;-75
2023/02/25 00:31:16;;;;;;;13.77;3.10;;;7.00;99.90;;;;;;5067357;28;20496;-75
2023/02/25 00:33:41;;;;;;;11.97;3.00;;;6.90;99.90;;;;;;5069557;28;20425;-75
2023/02/25 00:36:09;;;;;;;11.57;3.20;;;6.90;99.90;;;;;;5074090;28;20501;-76
2023/02/25 00:38:35;;;;;;;5.97;2.80;;;7.00;99.90;;;;;;5072832;28;20216;-76
2023/02/25 00:41:10;;;;;;;6.03;2.60;;;7.00;99.90;;;;;;5070948;28;20440;-76
2023/02/25 00:43:35;;;;;;;7.30;2.70;;;7.00;99.90;;;;;;5060347;28;20440;-76
2023/02/25 00:46:01;;;;;;;6.73;2.53;;;7.00;99.90;;;;;;5062173;28;20491;-76
2023/02/25 00:48:26;;;;;;;14.57;2.80;;;7.10;99.90;;;;;;5063838;28;21059;-77
2023/02/25 00:50:52;;;;;;;12.53;2.60;;;7.10;99.90;;;;;;5065318;28;20218;-75
2023/02/25 00:53:17;;;;;;;12.03;2.70;;;7.10;99.90;;;;;;5067388;28;20554;-75
2023/02/25 00:55:43;;;;;;;9.20;2.17;;;7.00;99.90;;;;;;5069732;28;20186;-74
2023/02/25 00:58:08;;;;;;;8.60;2.47;;;7.00;99.90;;;;;;5071426;28;20178;-74
2023/02/25 01:00:34;;;;;;;11.80;3.03;;;7.00;99.90;;;;;;5062697;28;20179;-76
2023/02/25 01:02:59;;;;;;;5.83;2.23;;;7.00;99.90;;;;;;5055902;28;20183;-75
2023/02/25 01:05:25;;;;;;;10.60;2.93;;;7.00;99.90;;;;;;5061202;28;20702;-79
2023/02/25 01:07:51;;;;;;;5.50;2.73;;;7.00;99.90;;;;;;5071709;28;20170;-79
2023/02/25 01:10:16;;;;;;;15.97;3.50;;;7.00;99.90;;;;;;5069728;28;20202;-79
2023/02/25 01:12:42;;;;;;;6.47;2.10;;;7.00;99.90;;;;;;5068162;28;20197;-80
2023/02/25 01:15:08;;;;;;;12.50;2.87;;;7.00;99.90;;;;;;5066401;28;20182;-79
2023/02/25 01:17:33;;;;;;;7.60;2.80;;;6.90;99.90;;;;;;5068969;28;20182;-75
2023/02/25 01:19:59;;;;;;;8.07;2.57;;;7.00;99.90;;;;;;5070100;28;20432;-81
2023/02/25 01:22:24;;;;;;;16.50;3.37;;;7.00;99.90;;;;;;5072742;28;20210;-81
2023/02/25 01:24:53;;;;;;;8.10;2.60;;;7.00;99.90;;;;;;5071202;28;20167;-81
2023/02/25 01:27:18;;;;;;;11.80;3.17;;;7.10;99.90;;;;;;5063198;28;20190;-77
2023/02/25 01:29:44;;;;;;;10.67;3.67;;;7.00;99.90;;;;;;5055535;28;20429;-77
2023/02/25 01:32:12;;;;;;;10.87;2.80;;;7.00;99.90;;;;;;5053437;28;20288;-79
2023/02/25 01:34:38;;;;;;;8.47;2.57;;;7.00;99.90;;;;;;5057876;28;20244;-73
2023/02/25 01:37:04;;;;;;;6.17;2.17;;;7.00;99.90;;;;;;5059165;28;20482;-75
2023/02/25 01:39:31;;;;;;;9.17;2.57;;;7.00;99.90;;;;;;5061216;28;20823;-75
2023/02/25 01:41:58;;;;;;;11.80;3.60;;;7.00;99.90;;;;;;5063331;28;20438;-81
2023/02/25 01:44:29;;;;;;;17.20;2.50;;;7.00;99.90;;;;;;5064661;28;20443;-79
2023/02/25 01:46:55;;;;;;;17.10;4.40;;;7.00;99.90;;;;;;5065791;28;20429;-78
2023/02/25 01:49:38;;;;;;;12.23;3.97;;;7.00;99.90;;;;;;5060997;28;20540;-78
2023/02/25 01:52:13;;;;;;;8.63;2.57;;;7.00;99.90;;;;;;5058389;28;20479;-79
2023/02/25 01:54:39;;;;;;;10.17;3.13;;;7.00;99.90;;;;;;5064774;28;20421;-81
2023/02/25 01:57:10;;;;;;;15.00;3.20;;;7.00;99.90;;;;;;5064752;28;20421;-79
2023/02/25 01:59:38;;;;;;;9.40;3.37;;;7.00;99.90;;;;;;5061174;28;20472;-79
2023/02/25 02:02:03;;;;;;;7.43;2.87;;;7.00;99.90;;;;;;5057257;28;20885;-78
2023/02/25 02:04:30;;;;;;;9.23;2.50;;;7.00;99.90;;;;;;5060691;28;20432;-78
2023/02/25 02:06:57;;;;;;;10.23;3.07;;;7.00;99.90;;;;;;5064933;28;20515;-78
2023/02/25 02:09:28;;;;;;;8.90;2.80;;;7.00;99.90;;;;;;5064915;28;20516;-78
2023/02/25 02:11:56;;;;;;;9.23;3.80;;;7.00;99.90;;;;;;5062894;28;20481;-78
2023/02/25 02:14:33;;;;;;;8.23;3.33;;;7.00;99.90;;;;;;5061697;28;20457;-77
2023/02/25 02:17:28;;;;;;;6.83;2.93;;;7.00;99.90;;;;;;5068146;28;20424;-78
2023/02/25 02:20:13;;;;;;;10.40;3.00;;;7.00;99.90;;;;;;5070457;28;20435;-78
2023/02/25 02:22:51;;;;;;;20.23;3.07;;;7.10;99.90;;;;;;5067889;28;20453;-79
2023/02/25 02:25:16;;;;;;;11.23;2.60;;;7.00;99.90;;;;;;5054567;28;20985;-80
2023/02/25 02:28:13;;;;;;;5.93;2.37;;;7.00;99.90;;;;;;5055938;28;20438;-80
2023/02/25 02:31:03;;;;;;;4.20;2.07;;;7.00;99.90;;;;;;5057435;28;20221;-79
2023/02/25 02:33:55;;;;;;;9.33;3.10;;;6.90;99.90;;;;;;5060103;28;20460;-80
2023/02/25 02:36:47;;;;;;;7.83;2.43;;;6.90;99.90;;;;;;5061401;28;20435;-79
2023/02/25 02:39:33;;;;;;;12.00;3.80;;;6.90;99.90;;;;;;5066198;28;20451;-79
2023/02/25 02:42:12;;;;;;;13.60;2.43;;;6.80;99.90;;;;;;5061055;28;20920;-80
2023/02/25 02:44:53;;;;;;;11.30;2.20;;;6.80;99.90;;;;;;5067928;28;20423;-81
2023/02/25 02:47:33;;;;;;;11.10;2.73;;;6.80;99.90;;;;;;5057190;28;20444;-79
2023/02/25 02:50:32;;;;;;;13.20;3.60;;;6.80;99.90;;;;;;5055221;28;20464;-79
2023/02/25 02:53:05;;;;;;;11.90;2.77;;;6.80;99.90;;;;;;5064061;28;20484;-79
2023/02/25 02:55:41;;;;;;;8.03;2.40;;;6.70;99.90;;;;;;5055543;28;20435;-78
2023/02/25 02:58:15;;;;;;;13.07;3.40;;;6.70;99.90;;;;;;5069034;28;20423;-78
2023/02/25 03:00:44;;;;;;;16.43;3.53;;;6.70;99.90;;;;;;5059374;28;20435;-78
2023/02/25 03:03:18;;;;;;;12.30;4.87;;;6.70;99.90;;;;;;5060923;28;20524;-78
2023/02/25 03:05:48;;;;;;;12.73;2.27;;;6.70;99.90;;;;;;5062414;28;20473;-78
2023/02/25 03:08:18;;;;;;;11.53;2.97;;;6.70;99.90;;;;;;5061970;28;20912;-78
2023/02/25 03:10:44;;;;;;;18.30;2.50;;;6.70;99.90;;;;;;5066608;28;20463;-78
2023/02/25 03:13:10;;;;;;;13.87;2.77;;;6.70;99.90;;;;;;5058781;28;20524;-73
2023/02/25 03:15:39;;;;;;;19.23;3.03;;;6.70;99.90;;;;;;5055966;28;20175;-78
2023/02/25 03:18:15;;;;;;;9.47;3.30;;;6.70;99.90;;;;;;5053804;28;20488;-78
2023/02/25 03:20:45;;;;;;;14.80;2.60;;;6.70;99.90;;;;;;5053366;28;20413;-77
2023/02/25 03:23:19;;;;;;;8.73;3.03;;;6.70;99.90;;;;;;5054918;28;20425;-77
2023/02/25 03:25:52;;;;;;;10.63;3.40;;;6.70;99.90;;;;;;5057364;28;20424;-77
2023/02/25 03:28:30;;;;;;;11.53;2.70;;;6.70;99.90;;;;;;5063331;28;20567;-77
2023/02/25 03:31:05;;;;;;;11.30;3.13;;;6.80;99.90;;;;;;5063936;28;20483;-77
2023/02/25 03:33:35;;;;;;;7.53;3.17;;;6.80;99.90;;;;;;5063283;28;20432;-77
2023/02/25 03:36:10;;;;;;;16.33;3.80;;;6.80;99.90;;;;;;5061575;28;20436;-77
2023/02/25 03:38:41;;;;;;;11.80;3.30;;;6.80;99.90;;;;;;5064639;28;20428;-77
2023/02/25 05:31:20;;;;;;;7.47;2.33;;;6.90;99.90;;;;;;5690149;23;20514;-84
2023/02/25 05:33:45;;;;;;;7.73;2.73;;;7.00;99.90;;;;;;5074806;28;20498;-78
2023/02/25 05:36:13;;;;;;;10.53;2.53;;;7.00;99.90;;;;;;5041182;28;20455;-79
2023/02/25 05:38:39;;;;;;;16.43;3.87;;;6.90;99.90;;;;;;5074809;28;20620;-79
2023/02/25 05:41:05;;;;;;;9.40;3.33;;;6.90;99.90;;;;;;5074724;28;20933;-77
2023/02/25 05:43:32;;;;;;;16.03;4.63;;;7.00;99.90;;;;;;5074696;28;20541;-79
2023/02/25 05:46:01;;;;;;;9.70;3.10;;;6.90;99.90;;;;;;5074328;28;20439;-79
2023/02/25 05:48:28;;;;;;;12.57;2.60;;;6.90;99.90;;;;;;5073326;28;20456;-78
2023/02/25 05:51:00;;;;;;;7.60;2.80;;;6.90;99.90;;;;;;5074227;28;20475;-79
2023/02/25 05:53:26;;;;;;;15.07;3.13;;;6.90;99.90;;;;;;5072904;28;20468;-81
2023/02/25 05:55:52;;;;;;;12.00;3.23;;;6.90;99.90;;;;;;5074426;28;20463;-81
2023/02/25 05:58:17;;;;;;;23.17;4.13;;;6.90;99.90;;;;;;5074298;28;20188;-80
2023/02/25 06:00:43;;;;;;;9.07;2.90;;;6.90;99.90;;;;;;5074340;28;20186;-80
2023/02/25 06:03:08;;;;;;;9.23;2.60;;;6.90;99.90;;;;;;5074060;28;20190;-80
2023/02/25 06:05:38;;;;;;;14.90;3.50;;;7.00;99.90;;;;;;5073802;28;20572;-75
2023/02/25 06:08:03;;;;;;;13.53;3.60;;;6.90;99.90;;;;;;5073853;28;20186;-75
2023/02/25 06:10:32;;;;;;;11.93;4.03;;;6.80;99.90;;;;;;5073721;28;20487;-76
2023/02/25 06:12:58;;;;;;;13.73;3.33;;;6.80;99.90;;;;;;5073893;28;20209;-76
2023/02/25 06:15:23;;;;;;;9.03;3.53;;;6.90;99.90;;;;;;5074100;28;20432;-81
2023/02/25 06:17:49;;;;;;;16.90;3.73;;;6.90;99.90;;;;;;5074081;28;20189;-80
2023/02/25 06:20:16;;;;;;;18.40;3.40;;;6.90;99.90;;;;;;5073790;28;20182;-80
2023/02/25 06:22:42;;;;;;;11.20;4.40;;;6.90;99.90;;;;;;5073565;28;20237;-77
2023/02/25 06:25:08;;;;;;;7.97;2.77;;;6.90;99.90;;;;;;5074500;28;20437;-79
2023/02/25 06:27:33;;;;;;;11.60;2.90;;;6.90;99.90;;;;;;5051666;28;20595;-74
2023/02/25 06:30:01;;;;;;;7.63;3.30;;;6.90;99.90;;;;;;5073364;28;20182;-77
2023/02/25 06:32:26;;;;;;;10.90;3.50;;;6.90;99.90;;;;;;5072710;28;20229;-78
2023/02/25 06:34:52;;;;;;;7.90;2.60;;;6.90;99.90;;;;;;5073096;28;20443;-77
2023/02/25 06:37:17;;;;;;;15.17;3.80;;;6.90;99.90;;;;;;5073194;28;20182;-80
2023/02/25 06:39:43;;;;;;;9.57;3.47;;;6.90;99.90;;;;;;5073503;28;20178;-84
2023/02/25 06:42:09;;;;;;;9.60;3.43;;;6.90;99.90;;;;;;5073327;28;20186;-79
2023/02/25 06:44:35;;;;;;;14.73;3.50;;;6.90;99.90;;;;;;5072566;28;20175;-79
2023/02/25 06:47:00;;;;;;;20.97;4.57;;;6.90;99.90;;;;;;5071367;28;20436;-75
2023/02/25 06:49:26;;;;;;;16.47;3.30;;;6.90;99.90;;;;;;5071885;28;20531;-76
2023/02/25 06:51:51;;;;;;;9.97;3.00;;;6.90;99.90;;;;;;5071803;28;20205;-76
2023/02/25 06:54:17;;;;;;;8.83;2.83;;;6.90;99.90;;;;;;5071946;28;20522;-72
2023/02/25 06:56:43;;;;;;;15.27;2.90;;;6.90;99.90;;;;;;5072233;28;20190;-73
2023/02/25 06:59:09;;;;;;;27.50;4.47;;;6.90;99.90;;;;;;5072142;28;20478;-74
2023/02/25 07:01:36;;;;;;;14.73;3.97;;;6.90;99.90;;;;;;5072448;28;20464;-81
2023/02/25 07:04:02;;;;;;;15.73;3.43;;;7.00;99.90;;;;;;5071994;28;20213;-76
2023/02/25 07:06:28;;;;;;;15.87;4.20;;;7.10;99.90;;;;;;5071679;28;20792;-80
2023/02/25 07:08:53;;;;;;;12.37;2.67;;;7.00;99.90;;;;;;5071524;28;20429;-76
2023/02/25 07:11:20;;;;;;;24.33;6.33;;;7.00;99.90;;;;;;5071309;28;20346;-79
2023/02/25 07:13:47;;;;;;;13.37;4.10;;;7.00;99.90;;;;;;5072037;28;20204;-78
2023/02/25 07:16:14;;;;;;;14.77;3.47;;;7.00;99.90;;;;;;5071924;28;20981;-78
2023/02/25 07:18:40;;;;;;;17.83;3.77;;;7.00;99.90;;;;;;5071708;28;20515;-78
2023/02/25 07:21:06;;;;;;;6.90;2.70;;;7.00;99.90;;;;;;5071076;28;20498;-76
2023/02/25 07:23:32;;;;;;;12.50;4.37;;;7.10;99.90;;;;;;5071921;28;20432;-75
2023/02/25 07:26:04;;;;;;;13.97;4.00;;;7.10;99.90;;;;;;5071708;28;20467;-77
2023/02/25 07:28:30;;;;;;;13.30;3.60;;;7.10;99.90;;;;;;5073186;28;20804;-75
2023/02/25 07:30:58;;;;;;;25.23;4.57;;;7.10;99.90;;;;;;5052445;28;20484;-77
2023/02/25 07:33:24;;;;;;;10.20;3.17;;;7.10;99.90;;;;;;5071698;28;20182;-79
2023/02/25 07:35:53;;;;;;;14.43;3.97;;;7.20;99.90;;;;;;5071474;28;20468;-77
2023/02/25 07:38:19;;;;;;;11.03;2.90;;;7.20;99.90;;;;;;5071231;28;20208;-77
2023/02/25 07:40:44;;;;;;;12.97;3.70;;;7.20;99.90;;;;;;5069116;28;20482;-75
2023/02/25 07:43:10;;;;;;;13.93;3.20;;;7.20;99.90;;;;;;5071176;28;20178;-74
2023/02/25 07:45:35;;;;;;;12.97;3.70;;;7.20;99.90;;;;;;5072324;28;20182;-75
2023/02/25 07:48:01;;;;;;;13.53;3.40;;;7.20;99.90;;;;;;5074671;28;20174;-73
2023/02/25 07:50:26;;;;;;;11.07;4.50;;;7.20;99.90;;;;;;5057103;28;20230;-73
2023/02/25 07:52:52;;;;;;;9.50;2.70;;;7.20;99.90;;;;;;5075162;28;20178;-73
2023/02/25 07:55:17;;;;;;;11.60;3.13;;;7.20;99.90;;;;;;5071853;28;20174;-73
2023/02/25 07:57:43;;;;;;;14.53;2.90;;;7.20;99.90;;;;;;5073905;28;20186;-72
2023/02/25 08:00:09;;;;;;;13.67;3.37;;;7.30;99.90;;;;;;5073861;28;20187;-73
2023/02/25 08:02:35;;;;;;;6.77;3.00;;;7.20;99.90;;;;;;5074737;28;20186;-72
2023/02/25 08:05:01;;;;;;;10.47;3.50;;;7.20;99.90;;;;;;5074989;28;20942;-72
2023/02/25 08:07:28;;;;;;;14.73;4.37;;;7.20;99.90;;;;;;5075206;28;20467;-72
2023/02/25 08:09:54;;;;;;;20.40;4.07;;;7.30;99.90;;;;;;5075510;28;20259;-73
2023/02/25 08:12:20;;;;;;;8.93;3.90;;;7.30;99.90;;;;;;5075300;28;20449;-72
2023/02/25 08:14:45;;;;;;;10.57;3.30;;;7.30;99.90;;;;;;5075577;28;20186;-75
2023/02/25 08:17:12;;;;;;;21.10;4.47;;;7.30;99.90;;;;;;5075391;28;20281;-72
2023/02/25 08:19:37;;;;;;;18.50;4.20;;;7.30;99.90;;;;;;5075326;28;20186;-73
2023/02/25 08:22:03;;;;;;;13.87;4.20;;;7.30;99.90;;;;;;5075104;28;20433;-73
2023/02/25 08:24:29;;;;;;;10.23;3.90;;;7.30;99.90;;;;;;5072785;28;20581;-74
2023/02/25 08:26:55;;;;;;;13.83;4.27;;;7.20;99.90;;;;;;5074711;28;20178;-75
2023/02/25 08:29:21;;;;;;;9.20;2.90;;;7.30;99.90;;;;;;5071745;28;20498;-79
2023/02/25 08:31:48;;;;;;;9.77;3.43;;;7.30;99.90;;;;;;5074544;28;20233;-84
2023/02/25 08:34:14;;;;;;;14.67;3.73;;;7.30;99.90;;;;;;5074317;28;20523;-77
2023/02/25 08:36:40;;;;;;;18.48;4.18;;;7.40;99.90;;;;;;5074313;28;20453;-85
2023/02/25 08:39:05;;;;;;;10.67;3.87;;;7.40;99.90;;;;;;5074968;28;20182;-84
2023/02/25 08:41:31;;;;;;;8.77;2.90;;;7.50;99.90;;;;;;5074858;28;20739;-80
2023/02/25 08:43:59;;;;;;;13.53;3.30;;;7.60;99.90;;;;;;5074878;28;20174;-82
2023/02/25 08:46:26;;;;;;;12.90;3.93;;;7.60;99.90;;;;;;5071741;28;20194;-80
2023/02/25 08:48:53;;;;;;;13.90;3.00;;;7.70;99.90;;;;;;5075295;28;20432;-75
2023/02/25 08:51:21;;;;;;;16.13;4.00;;;7.80;99.90;;;;;;5074713;28;20526;-86
2023/02/25 08:53:47;;;;;;;15.37;3.43;;;7.90;99.90;;;;;;5074468;28;20451;-81
2023/02/25 08:56:15;;;;;;;13.33;3.37;;;7.90;99.90;;;;;;5074111;28;20429;-85
2023/02/25 08:58:40;;;;;;;9.73;3.80;;;7.90;99.90;;;;;;5074493;28;20692;-85
2023/02/25 09:01:12;;;;;;;12.97;3.77;;;7.90;99.90;;;;;;5075486;28;20475;-81
2023/02/25 09:03:39;;;;;;;9.03;3.53;;;7.90;99.90;;;;;;5073223;28;20194;-75
2023/02/25 09:06:05;;;;;;;10.37;2.93;;;7.90;99.90;;;;;;5073335;28;20793;-78
2023/02/25 09:08:30;;;;;;;14.87;3.40;;;8.00;99.90;;;;;;5074360;28;20436;-77
2023/02/25 09:10:56;;;;;;;13.73;2.90;;;7.90;99.90;;;;;;5054989;28;20220;-78
2023/02/25 09:13:21;;;;;;;19.43;3.97;;;7.90;99.90;;;;;;5073380;28;20175;-78
2023/02/25 09:15:57;;;;;;;6.27;2.00;;;7.90;99.90;;;;;;5073892;28;20213;-79
2023/02/25 09:18:23;;;;;;;7.10;2.77;;;7.90;99.90;;;;;;5072827;28;20594;-80
2023/02/25 09:20:49;;;;;;;16.80;4.40;;;7.90;99.90;;;;;;5074394;28;20527;-85
2023/02/25 09:23:15;;;;;;;11.27;2.57;;;7.90;99.90;;;;;;5074433;28;20581;-87
2023/02/25 09:25:43;;;;;;;4.03;2.40;;;7.80;99.90;;;;;;5073979;28;20439;-82
2023/02/25 09:28:08;;;;;;;9.23;1.97;;;7.90;99.90;;;;;;5074034;28;20187;-74
2023/02/25 09:30:34;;;;;;;5.17;1.60;;;7.80;99.90;;;;;;5073418;28;20483;-76
2023/02/25 09:33:00;;;;;;;4.93;1.40;;;7.70;99.90;;;;;;5066800;28;20266;-81
2023/02/25 09:35:25;;;;;;;8.83;2.53;;;7.60;99.90;;;;;;5073508;28;20182;-85
2023/02/25 09:37:51;;;;;;;5.00;1.90;;;7.40;99.90;;;;;;5066298;28;20181;-81
2023/02/25 09:40:21;;;;;;;5.20;2.10;;;7.40;99.90;;;;;;5073543;28;20185;-79
2023/02/25 09:43:13;;;;;;;2.73;1.67;;;7.50;99.90;;;;;;5071549;28;20656;-85
2023/02/25 09:45:40;;;;;;;3.97;2.13;;;7.50;99.90;;;;;;5067921;28;20441;-75
2023/02/25 09:48:26;;;;;;;5.97;2.33;;;7.70;99.90;;;;;;5073675;28;20437;-75
2023/02/25 09:51:03;;;;;;;4.50;1.87;;;7.70;99.90;;;;;;5071502;28;20808;-79
2023/02/25 09:53:39;;;;;;;7.10;2.17;;;7.80;99.90;;;;;;5071636;28;20432;-73
2023/02/25 09:56:06;;;;;;;3.80;1.43;;;7.90;99.90;;;;;;5071361;28;20562;-72
2023/02/25 09:58:51;;;;;;;3.73;1.57;;;7.70;99.90;;;;;;5071849;28;20507;-74
2023/02/25 10:01:28;;;;;;;5.33;1.60;;;7.80;99.90;;;;;;5070984;28;20838;-74
2023/02/25 10:04:09;;;;;;;4.10;2.10;;;7.90;99.90;;;;;;5070712;28;20420;-78
2023/02/25 10:06:41;;;;;;;2.80;2.07;;;8.00;99.90;;;;;;5070240;28;20437;-78
2023/02/25 10:09:22;;;;;;;7.97;1.90;;;8.00;99.90;;;;;;5072376;28;20429;-83
2023/02/25 10:11:56;;;;;;;5.40;2.10;;;8.20;99.90;;;;;;5070941;28;20873;-78
2023/02/25 10:14:48;;;;;;;7.97;2.20;;;8.30;99.90;;;;;;5072401;28;20934;-75
2023/02/25 10:17:43;;;;;;;8.13;2.07;;;8.40;99.90;;;;;;5071575;28;20507;-79
2023/02/25 10:20:17;;;;;;;4.03;1.30;;;8.30;99.90;;;;;;5067476;28;20447;-78
2023/02/25 10:22:53;;;;;;;6.77;1.87;;;7.90;99.90;;;;;;5071662;28;20460;-74
2023/02/25 10:25:26;;;;;;;12.70;1.60;;;8.00;99.90;;;;;;5072163;28;20439;-78
2023/02/25 10:28:06;;;;;;;4.27;1.73;;;7.90;99.90;;;;;;5072494;28;20443;-77
2023/02/25 10:30:59;;;;;;;5.20;2.07;;;7.60;99.90;;;;;;5072375;28;20460;-74
2023/02/25 10:33:27;;;;;;;6.57;1.27;;;7.30;99.90;;;;;;5071482;28;20441;-76
2023/02/25 10:36:02;;;;;;;6.47;1.97;;;7.20;99.90;;;;;;5068892;28;20448;-74
2023/02/25 10:38:27;;;;;;;3.80;1.57;;;7.20;99.90;;;;;;5072017;28;20436;-74
2023/02/25 10:40:56;;;;;;;6.43;1.47;;;7.20;99.90;;;;;;5071428;28;20440;-73
2023/02/25 10:43:25;;;;;;;1.20;1.00;;;7.20;99.90;;;;;;5072615;28;20190;-73
2023/02/25 10:46:00;;;;;;;4.00;1.40;;;7.20;99.90;;;;;;5068548;28;20429;-78
2023/02/25 10:48:26;;;;;;;2.03;1.13;;;7.30;99.90;;;;;;5069923;28;20464;-75
2023/02/25 10:51:11;;;;;;;5.03;1.27;;;7.50;99.90;;;;;;5071562;28;20507;-73
2023/02/25 10:54:07;;;;;;;3.00;1.10;;;7.70;99.90;;;;;;5071128;28;20470;-77
2023/02/25 10:56:42;;;;;;;3.43;1.47;;;7.80;99.90;;;;;;5053689;28;20844;-76
2023/02/25 10:59:37;;;;;;;3.60;1.60;;;7.80;99.90;;;;;;5071374;28;20455;-73
2023/02/25 11:02:19;;;;;;;4.37;1.60;;;8.00;99.90;;;;;;5068666;28;20497;-74
2023/02/25 11:04:45;;;;;;;9.97;1.73;;;8.10;99.90;;;;;;5069756;28;20519;-76
2023/02/25 11:07:31;;;;;;;4.70;1.53;;;8.20;99.90;;;;;;5069412;28;20736;-79
2023/02/25 11:10:18;;;;;;;3.97;2.17;;;8.30;99.90;;;;;;5071382;28;20520;-87
2023/02/25 11:12:52;;;;;;;9.07;2.50;;;8.20;99.90;;;;;;5070796;28;20711;-74
2023/02/25 11:15:24;;;;;;;12.90;2.07;;;8.30;99.90;;;;;;5071831;28;20428;-83
2023/02/25 11:17:51;;;;;;;13.23;2.63;;;8.40;99.90;;;;;;5072065;28;20436;-81
2023/02/25 11:20:27;;;;;;;5.77;2.47;;;8.20;99.90;;;;;;5072020;28;20440;-83
2023/02/25 11:22:55;;;;;;;4.80;1.93;;;8.10;99.90;;;;;;5072410;28;20945;-85
2023/02/25 11:25:37;;;;;;;8.15;2.75;;;8.20;99.90;;;;;;5068402;28;20453;-81
2023/02/25 11:28:06;;;;;;;6.57;2.30;;;8.40;99.90;;;;;;5072488;28;20289;-74
2023/02/25 11:30:37;;;;;;;7.47;2.40;;;8.40;99.90;;;;;;5071652;28;20471;-76
2023/02/25 11:33:27;;;;;;;11.07;2.00;;;8.50;99.90;;;;;;5051534;28;20441;-77
2023/02/25 11:36:00;;;;;;;6.57;2.60;;;8.70;99.90;;;;;;5048497;28;20433;-77
2023/02/25 11:38:30;;;;;;;8.03;2.10;;;8.60;99.90;;;;;;5051141;28;20918;-80
2023/02/25 11:40:56;;;;;;;5.93;2.90;;;8.70;99.90;;;;;;5050862;28;20536;-80
2023/02/25 11:43:26;;;;;;;3.80;2.60;;;8.70;99.90;;;;;;5052097;28;20528;-79
2023/02/25 11:45:56;;;;;;;7.47;2.50;;;8.60;99.90;;;;;;5051986;28;20193;-79
2023/02/25 11:48:27;;;;;;;8.30;2.93;;;8.70;99.90;;;;;;5052018;28;20429;-79
2023/02/25 11:51:18;;;;;;;5.10;2.37;;;8.80;99.90;;;;;;5050770;28;20963;-78
2023/02/25 11:54:03;;;;;;;4.83;2.30;;;8.60;99.90;;;;;;5051253;28;20440;-79
2023/02/25 11:56:39;;;;;;;9.20;2.30;;;8.60;99.90;;;;;;5052453;28;20499;-80
2023/02/25 11:59:23;;;;;;;7.40;2.20;;;8.60;99.90;;;;;;5052328;28;20429;-81
2023/02/25 12:02:27;;;;;;;7.83;2.37;;;8.50;99.90;;;;;;5051053;28;20445;-74
2023/02/25 12:05:12;;;;;;;4.10;2.50;;;8.30;99.90;;;;;;5051053;28;20422;-74
2023/02/25 12:07:55;;;;;;;9.03;1.83;;;8.30;99.90;;;;;;5051238;28;20437;-80
2023/02/25 12:10:42;;;;;;;3.53;1.70;;;8.40;99.90;;;;;;5050174;28;20533;-78
2023/02/25 12:13:38;;;;;;;9.50;2.03;;;8.30;99.90;;;;;;5049561;28;20433;-78
2023/02/25 12:16:22;;;;;;;7.60;1.83;;;8.30;99.90;;;;;;5050276;28;20425;-78
2023/02/25 12:18:53;;;;;;;4.10;1.70;;;8.30;99.90;;;;;;5050353;28;20520;-77
2023/02/25 12:21:29;;;;;;;6.20;1.50;;;8.40;99.90;;;;;;5051615;28;20417;-78
2023/02/25 12:24:22;;;;;;;4.93;2.03;;;8.40;99.90;;;;;;5048293;28;20425;-78
2023/02/25 12:27:15;;;;;;;7.87;1.80;;;8.40;99.90;;;;;;5051352;28;20927;-77
2023/02/25 12:30:14;;;;;;;4.37;1.50;;;8.50;99.90;;;;;;5051347;28;20437;-78
2023/02/25 12:33:10;;;;;;;5.60;2.20;;;8.90;99.90;;;;;;5070650;28;20505;-78
2023/02/25 12:36:02;;;;;;;5.77;1.87;;;9.20;99.90;;;;;;5067999;28;20441;-72
2023/02/25 12:38:50;;;;;;;7.00;1.60;;;9.30;99.80;;;;;;5072636;28;20785;-73
2023/02/25 12:41:22;;;;;;;6.63;2.53;;;9.30;98.50;;;;;;5073936;28;20527;-74
2023/02/25 12:44:22;;;;;;;8.37;2.80;;;9.20;98.00;;;;;;5074181;28;20523;-73
2023/02/25 12:47:13;;;;;;;11.57;1.90;;;9.30;94.70;;;;;;5073094;28;20443;-74
2023/02/25 12:50:00;;;;;;;5.53;1.67;;;9.40;93.40;;;;;;5071863;28;20425;-78
2023/02/25 12:52:53;;;;;;;7.80;2.58;;;9.50;91.50;;;;;;5072831;28;20463;-82
2023/02/25 12:55:52;;;;;;;8.53;1.97;;;9.70;94.40;;;;;;5071333;28;20575;-81
2023/02/25 12:58:50;;;;;;;4.63;1.77;;;9.80;91.90;;;;;;5056674;28;20428;-79
2023/02/25 13:01:55;;;;;;;3.30;1.43;;;9.90;90.50;;;;;;5025839;28;20448;-80
2023/02/25 13:04:39;;;;;;;6.10;2.10;;;10.00;90.30;;;;;;5073487;28;20534;-82
2023/02/25 13:07:42;;;;;;;5.77;1.93;;;10.10;87.50;;;;;;5073767;28;20443;-79
2023/02/25 13:10:31;;;;;;;3.57;2.10;;;10.00;85.20;;;;;;5071538;28;20500;-79
2023/02/25 13:13:23;;;;;;;4.70;1.60;;;9.90;86.90;;;;;;5070505;28;20421;-79
2023/02/25 13:16:01;;;;;;;5.37;2.40;;;10.00;88.40;;;;;;5069796;28;20770;-80
2023/02/25 13:18:31;;;;;;;5.07;1.40;;;10.30;84.00;;;;;;5072353;28;20472;-79
2023/02/25 13:21:23;;;;;;;5.90;1.57;;;10.40;80.00;;;;;;5072544;28;20459;-79
2023/02/25 13:24:16;;;;;;;2.60;1.20;;;10.50;82.10;;;;;;5071935;28;20432;-79
2023/02/25 13:27:01;;;;;;;1.83;1.07;;;10.60;76.00;;;;;;5072175;28;20951;-80
2023/02/25 13:29:48;;;;;;;3.47;1.70;;;10.70;76.40;;;;;;5055333;28;20432;-80
2023/02/25 13:32:51;;;;;;;2.83;1.27;;;10.90;74.80;;;;;;5073820;28;20910;-80
2023/02/25 13:35:23;;;;;;;3.20;1.40;;;10.80;74.40;;;;;;5072185;28;20416;-80
2023/02/25 13:38:15;;;;;;;4.17;1.50;;;10.30;68.80;;;;;;5073944;28;20449;-80
2023/02/25 13:41:02;;;;;;;2.93;1.30;;;10.30;69.60;;;;;;5073223;28;20790;-81
2023/02/25 13:43:40;;;;;;;2.40;1.20;;;10.40;71.60;;;;;;5072098;28;20417;-80
2023/02/25 13:46:11;;;;;;;2.27;1.10;;;10.50;68.60;;;;;;5074724;28;20489;-80
2023/02/25 13:49:17;;;;;;;1.80;1.07;;;10.60;68.70;;;;;;5070910;28;20515;-81
2023/02/25 13:51:46;;;;;;;8.23;1.33;;;10.80;68.10;;;;;;5017914;28;20474;-80
2023/02/25 13:54:21;;;;;;;9.13;1.57;;;10.90;67.20;;;;;;5074431;28;20432;-81
2023/02/25 13:56:59;;;;;;;5.97;1.70;;;11.00;64.00;;;;;;5074263;28;20432;-81
2023/02/25 14:00:03;;;;;;;11.07;2.00;;;10.90;58.60;;;;;;5074653;28;20435;-81
2023/02/25 14:02:53;;;;;;;7.97;3.77;;;10.80;59.30;;;;;;4949970;28;20449;-80
2023/02/25 14:05:55;;;;;;;5.50;1.80;;;10.70;56.80;;;;;;4967398;28;20429;-81
2023/02/25 14:08:36;;;;;;;2.97;1.00;;;10.60;57.30;;;;;;5059558;28;20452;-80
2023/02/25 14:11:40;;;;;;;3.10;1.20;;;10.60;57.70;;;;;;5074516;28;20464;-80
2023/02/25 14:14:36;;;;;;;5.40;1.90;;;10.60;57.80;;;;;;5075268;28;20440;-80
2023/02/25 14:17:16;;;;;;;4.77;1.47;;;10.40;56.00;;;;;;5073896;28;20437;-80
2023/02/25 14:20:21;;;;;;;3.17;1.80;;;10.00;56.00;;;;;;5073552;28;20432;-79
2023/02/25 14:22:52;;;;;;;2.60;1.13;;;9.90;57.40;;;;;;5061251;28;20845;-79
2023/02/25 14:25:20;;;;;;;7.03;3.63;;;10.00;56.90;;;;;;5073535;28;20424;-79
2023/02/25 14:27:51;;;;;;;3.00;1.80;;;10.00;56.70;;;;;;5071094;28;20433;-80
2023/02/25 14:30:41;;;;;;;1.87;1.50;;;10.00;57.20;;;;;;5073477;28;20430;-79
2023/02/25 14:33:43;;;;;;;4.00;2.33;;;10.10;57.70;;;;;;5071963;28;20513;-80
2023/02/25 14:36:26;;;;;;;1.53;1.07;;;9.90;57.90;;;;;;5073550;28;20420;-80
2023/02/25 14:39:11;;;;;;;4.70;1.43;;;10.00;58.50;;;;;;5073221;28;20531;-79
2023/02/25 14:41:56;;;;;;;2.90;1.03;;;9.90;57.10;;;;;;5072014;28;20459;-78
2023/02/25 14:44:55;;;;;;;2.60;1.00;;;9.60;56.90;;;;;;5070265;28;20436;-78
2023/02/25 14:47:44;;;;;;;4.27;1.13;;;9.80;55.40;;;;;;5068252;28;20440;-83
2023/02/25 14:50:38;;;;;;;3.10;1.40;;;9.70;56.20;;;;;;5069964;28;20540;-80
2023/02/25 14:53:13;;;;;;;4.50;2.10;;;9.80;55.20;;;;;;5027906;28;20448;-80
2023/02/25 14:56:18;;;;;;;8.63;1.43;;;9.80;54.90;;;;;;5071401;28;20441;-79
2023/02/25 14:58:59;;;;;;;3.13;1.43;;;9.80;56.00;;;;;;5072237;28;20467;-81
2023/02/25 15:01:34;;;;;;;4.40;1.47;;;10.00;56.20;;;;;;5070276;28;20873;-80
2023/02/25 15:04:19;;;;;;;4.33;1.40;;;9.90;56.60;;;;;;5070721;28;20490;-79
2023/02/25 15:06:56;;;;;;;2.50;1.20;;;10.10;55.50;;;;;;5068937;28;20420;-85
2023/02/25 15:09:22;;;;;;;5.13;1.10;;;10.00;55.20;;;;;;5071158;28;20420;-77
2023/02/25 15:12:01;;;;;;;3.07;1.23;;;10.10;55.70;;;;;;5071758;28;20812;-81
2023/02/25 15:14:57;;;;;;;2.57;1.60;;;10.20;54.40;;;;;;5069666;28;20188;-82
2023/02/25 15:17:32;;;;;;;2.60;1.10;;;10.00;54.20;;;;;;5072745;28;20437;-82